Rumley, Arkansas
Current Conditions -  °F | °C
As of 4:35 AM on Sunday 21 Dec 2014 (Local Time) from KCCA Reporting Station
Haze Haze  
Wind Chill: 39°   Ceiling: 2400
Heat Index: 39°   Visibility: 5mi
Dew Point: 37°   Wind: 0mph
Humidity: 93%   Direction: NA
Pressure: 30.22"   Gusts: NA
Location:  35.8223°N, 92.5849°W
Report Text: KCCA 211035Z AUTO 00000KT 5SM BR OVC024 04/03 A3022 RMK AO2
Loading
Personal Weather Stations






























Interactive Weather Map New forecast layout! Learn more

10-Day Weather Forecast

Advertisements
Track Severe Weather on mobile